Nearby METAR Reports

 

KCXY - Harrisburg, Pennsylvania, USA
Distance from station: E 9mi, 14km
Updated: Tue, 22-Jan-2019 9:56pm EST
Clear
Clear
 Wind from SE
Wind: SE 8 mph , 13 km/h
Temperature: 27°F , -3°C
Wind Chill: 19°F , -7°C
Dew Point: 10°F , -12°C
Humidity: 50%
Barometer: 30.52 inHg , 1033.5 hPa
Clouds: Clear
Visibility: 10 miles , 16 km
2019/01/23 02:56 KCXY 230256Z AUTO 14007KT 10SM CLR M03/M12 A3052 RMK AO2 SLP343 T10331122 56013
KMDT - Middletown, Pennsylvania, USA
Distance from station: E 13mi, 21km
Updated: Tue, 22-Jan-2019 9:56pm EST
Overcast
Overcast
 Wind from SE
Wind: SE 7 mph , 11 km/h
Temperature: 27°F , -3°C
Wind Chill: 19°F , -7°C
Dew Point: 10°F , -12°C
Humidity: 50%
Barometer: 30.52 inHg , 1033.5 hPa
Clouds: Overcast
Visibility: 10 miles , 16 km
Cloud details: Overcast 24000 ft
2019/01/23 02:56 KMDT 230256Z 13006KT 10SM OVC240 M03/M12 A3052 RMK AO2 SLP341 T10281117 56012
 
KTHV - York, Pennsylvania, USA
Distance from station: SSE 22mi, 36km
Updated: Tue, 22-Jan-2019 9:53pm EST
Clear
Clear
 Wind from SE
Wind: SE 8 mph , 13 km/h
Temperature: 25°F , -4°C
Wind Chill: 16°F , -9°C
Dew Point: 12°F , -11°C
Humidity: 59%
Barometer: 30.51 inHg , 1033.2 hPa
Clouds: Clear
Visibility: 10 miles , 16 km
2019/01/23 02:53 KTHV 230253Z AUTO 14007KT 10SM CLR M04/M11 A3051 RMK AO2 SLP342 T10391111 56015
KMUI - Muir Aaf/Indiant, Pennsylvania, USA
Distance from station: ENE 27mi, 44km
Updated: Tue, 22-Jan-2019 9:56pm EST
Clear
Clear
 Wind from calm
Wind: Calm
Temperature: 21°F , -6°C
Dew Point: 14°F , -10°C
Humidity: 74%
Barometer: 30.52 inHg , 1033.5 hPa
Clouds: Clear
Visibility: 10 miles , 16 km
2019/01/23 02:56 KMUI 230256Z AUTO 00000KT 10SM CLR M06/M10 A3052 RMK AO2 SLP347 T10571105 57010 $
 
KLNS - Lancaster, Pennsylvania, USA
Distance from station: E 38mi, 62km
Updated: Tue, 22-Jan-2019 9:53pm EST
Clear
Clear
 Wind from S
Wind: S 5 mph , 7 km/h
Temperature: 27°F , -3°C
Wind Chill: 21°F , -6°C
Dew Point: 7°F , -14°C
Humidity: 43%
Barometer: 30.55 inHg , 1034.5 hPa
Clouds: Clear
Visibility: 10 miles , 16 km
2019/01/23 02:53 KLNS 230253Z 18004KT 10SM CLR M03/M14 A3055 RMK AO2 SLP350 T10281139 55007
KRYT - Fountain Dale, Pennsylvania, USA
Distance from station: SSW 40mi, 65km
Updated: Mon, 13-Nov-2017 7:53am EST
NOT Current
Mist, Overcast
Mist, Overcast
 Wind from calm
Wind: Calm
Temperature: 37°F , 3°C
Dew Point: 34°F , 1°C
Humidity: 87%
Barometer: 30.31 inHg , 1026.4 hPa
Summary: Mist
Clouds: Overcast
Visibility: 5 miles , 8 km
Cloud details: Overcast 700 ft
2017/11/13 12:53 KRYT 131253Z AUTO 00000KT 5SM BR OVC007 03/01 A3031 RMK AO2 SLP275 T00280011 TSNO $
 
KSEG - Selinsgrove, Pennsylvania, USA
Distance from station: N 42mi, 67km
Updated: Tue, 22-Jan-2019 9:53pm EST
Clear
Clear
 Wind from NNW
Wind: NNW 3 mph , 6 km/h
Temperature: 16°F , -9°C
Dew Point: 9°F , -13°C
Humidity: 73%
Barometer: 30.50 inHg , 1032.8 hPa
Clouds: Clear
Visibility: 10 miles , 16 km
2019/01/23 02:53 KSEG 230253Z AUTO 34003KT 10SM CLR M09/M13 A3050 RMK AO2 SLP337 T10891128 58010
KDMW - Carroll Cnty, Maryland, USA
Distance from station: S 43mi, 69km
Updated: Tue, 22-Jan-2019 10:20pm EST
Clear
Clear
 Wind from SSE
Wind: SSE 7 mph , 11 km/h
Temperature: 27°F , -3°C
Wind Chill: 19°F , -7°C
Dew Point: 7°F , -14°C
Humidity: 43%
Barometer: 30.49 inHg , 1032.5 hPa
Clouds: Clear
Visibility: 10 miles , 16 km
2019/01/23 03:20 KDMW 230320Z AUTO 16006KT 10SM CLR M03/M14 A3049 RMK AO2
 
KRSP - Camp David, Maryland, USA
Distance from station: SSW 46mi, 74km
Updated: Thu, 15-Nov-2018 8:54am EST
NOT Current
Snow, Freezing, Fog, Overcast
Snow, Freezing, Fog, Overcast
 Wind from ESE
Wind: ESE 9 mph , 15 km/h, Gust: 17 mph , 28 km/h
Temperature: 23°F , -5°C
Wind Chill: 13°F , -11°C
Dew Point: 21°F , -6°C
Humidity: 93%
Barometer: 30.45 inHg , 1031.2 hPa
Summary: Snow, Freezing, Fog
Clouds: Overcast
Visibility: 1/4 mile , 0.4 km
Cloud details: Overcast 500 ft
2018/11/15 13:54 KRSP 151354Z AUTO 11008G15KT 1/4SM SN FZFG VV005 M05/M06 A3045 RMK AO2 SLP340 P0018 T10501056 $